Time;durP1;ratioP1;P1;durP2;ratioP2;P2;SDS_P1;SDS_P2;PMS_P1;PMS_P2;Temp;Humidity;BMP_temperature;BMP_pressure;BME280_temperature;BME280_humidity;BME280_pressure;Samples;Min_cycle;Max_cycle;Signal;HPM_P1;HPM_P2
2021/01/16 00:00:59;;;;;;;14.55;8.15;;;0.30;99.90;;;;;;5012645;28;20074;-63
2021/01/16 00:03:25;;;;;;;17.52;9.10;;;0.30;99.90;;;;;;5012992;28;20034;-61
2021/01/16 00:05:52;;;;;;;17.70;8.38;;;0.30;99.90;;;;;;5012718;28;20048;-64
2021/01/16 00:08:20;;;;;;;23.27;10.10;;;0.30;99.90;;;;;;5005382;28;20077;-63
2021/01/16 00:10:48;;;;;;;18.37;10.07;;;0.30;99.90;;;;;;5012310;28;20391;-64
2021/01/16 00:13:16;;;;;;;18.40;9.23;;;0.30;99.90;;;;;;5011029;28;20061;-60
2021/01/16 00:15:43;;;;;;;17.90;9.75;;;0.20;99.90;;;;;;5009142;28;20098;-61
2021/01/16 00:18:11;;;;;;;18.85;9.77;;;0.20;99.90;;;;;;5010097;28;20052;-64
2021/01/16 00:20:39;;;;;;;18.55;10.32;;;0.20;99.90;;;;;;5011274;28;20120;-63
2021/01/16 00:23:07;;;;;;;17.85;9.43;;;0.20;99.90;;;;;;5005716;28;20026;-63
2021/01/16 00:25:33;;;;;;;23.45;9.35;;;0.20;99.90;;;;;;5011554;28;20064;-64
2021/01/16 00:27:59;;;;;;;19.30;10.48;;;0.20;99.90;;;;;;5010843;28;20036;-63
2021/01/16 00:30:27;;;;;;;17.50;9.57;;;0.20;99.90;;;;;;4984705;28;20053;-61
2021/01/16 00:32:53;;;;;;;18.85;10.43;;;0.20;99.90;;;;;;5007685;28;20041;-60
2021/01/16 00:35:19;;;;;;;20.20;9.43;;;0.20;99.90;;;;;;5009122;28;20033;-61
2021/01/16 00:37:47;;;;;;;24.83;9.15;;;0.20;99.90;;;;;;5008773;28;20033;-61
2021/01/16 00:40:22;;;;;;;20.30;8.90;;;0.20;99.90;;;;;;5011450;28;20040;-60
2021/01/16 00:42:50;;;;;;;16.45;8.52;;;0.30;99.90;;;;;;5008119;28;20087;-61
2021/01/16 00:45:17;;;;;;;20.27;10.52;;;0.30;99.90;;;;;;5012121;28;20405;-63
2021/01/16 00:47:43;;;;;;;17.85;10.02;;;0.30;99.90;;;;;;5011575;28;20025;-62
2021/01/16 00:50:11;;;;;;;16.25;9.50;;;0.30;99.90;;;;;;5009221;28;20438;-62
2021/01/16 00:52:37;;;;;;;20.90;9.53;;;0.30;99.90;;;;;;5005658;28;20029;-63
2021/01/16 00:55:06;;;;;;;22.80;10.57;;;0.20;99.90;;;;;;5026614;28;20538;-60
2021/01/16 00:57:32;;;;;;;24.80;10.63;;;0.20;99.90;;;;;;5010952;28;20053;-62
2021/01/16 00:59:57;;;;;;;16.17;9.73;;;0.20;99.90;;;;;;5011331;28;20034;-63
2021/01/16 01:02:23;;;;;;;14.52;8.25;;;0.20;99.90;;;;;;5009627;28;20053;-60
2021/01/16 01:04:50;;;;;;;21.73;10.05;;;0.20;99.90;;;;;;5005765;28;20036;-62
2021/01/16 01:07:16;;;;;;;18.42;9.40;;;0.30;99.90;;;;;;5010708;28;20036;-61
2021/01/16 01:09:43;;;;;;;15.77;8.70;;;0.30;99.90;;;;;;5010964;28;20030;-59
2021/01/16 01:12:10;;;;;;;19.00;9.38;;;0.30;99.90;;;;;;5011696;28;20487;-61
2021/01/16 01:14:36;;;;;;;17.35;8.73;;;0.30;99.90;;;;;;5009763;28;20030;-62
2021/01/16 01:17:03;;;;;;;16.08;9.35;;;0.40;99.90;;;;;;5009098;28;20131;-62
2021/01/16 01:19:28;;;;;;;21.75;10.43;;;0.30;99.90;;;;;;5007396;28;20034;-62
2021/01/16 01:21:54;;;;;;;21.88;10.02;;;0.30;99.90;;;;;;5006473;28;20045;-62
2021/01/16 01:24:20;;;;;;;22.58;11.00;;;0.30;99.90;;;;;;5012076;28;20033;-61
2021/01/16 01:26:45;;;;;;;20.80;9.90;;;0.30;99.90;;;;;;5010901;28;20030;-63
2021/01/16 01:29:11;;;;;;;19.95;10.32;;;0.20;99.90;;;;;;5012007;28;20036;-63
2021/01/16 01:31:37;;;;;;;19.90;9.98;;;0.20;99.90;;;;;;5006277;28;20046;-62
2021/01/16 01:34:04;;;;;;;24.10;10.93;;;0.20;99.90;;;;;;5007372;28;20513;-62
2021/01/16 01:36:30;;;;;;;20.73;10.65;;;0.20;99.90;;;;;;5012214;28;20053;-61
2021/01/16 01:38:56;;;;;;;25.17;10.23;;;0.20;99.90;;;;;;5006436;28;20164;-59
2021/01/16 01:41:22;;;;;;;21.10;9.65;;;0.20;99.90;;;;;;5024312;28;20022;-63
2021/01/16 01:43:48;;;;;;;16.80;9.70;;;0.30;99.90;;;;;;5010396;28;20072;-63
2021/01/16 01:46:17;;;;;;;20.53;9.97;;;0.30;99.90;;;;;;5011901;28;20109;-63
2021/01/16 01:48:43;;;;;;;22.75;9.00;;;0.20;99.90;;;;;;5010963;28;20026;-62
2021/01/16 01:51:11;;;;;;;17.60;9.95;;;0.30;99.90;;;;;;5012340;28;20026;-60
2021/01/16 01:53:38;;;;;;;18.47;9.27;;;0.20;99.90;;;;;;5004975;28;20018;-62
2021/01/16 01:56:04;;;;;;;21.60;11.45;;;0.20;99.90;;;;;;5012028;28;20018;-62
2021/01/16 01:58:31;;;;;;;20.70;10.98;;;0.20;99.90;;;;;;5011807;28;20033;-62
2021/01/16 02:00:57;;;;;;;23.53;10.97;;;0.20;99.90;;;;;;5012097;28;20033;-63
2021/01/16 02:03:24;;;;;;;21.73;10.65;;;0.20;99.90;;;;;;5009233;28;20629;-62
2021/01/16 02:05:56;;;;;;;20.42;9.68;;;0.20;99.90;;;;;;5010796;28;20404;-62
2021/01/16 02:08:23;;;;;;;19.67;10.50;;;0.20;99.90;;;;;;5010193;28;20026;-57
2021/01/16 02:10:49;;;;;;;21.23;9.32;;;0.20;99.90;;;;;;5011914;28;20040;-59
2021/01/16 02:13:15;;;;;;;17.48;9.45;;;0.20;99.90;;;;;;5011127;28;20029;-61
2021/01/16 02:15:40;;;;;;;23.30;9.83;;;0.20;99.90;;;;;;5010527;28;20451;-63
2021/01/16 02:18:18;;;;;;;19.47;11.30;;;0.20;99.90;;;;;;5010882;28;20041;-62
2021/01/16 02:20:46;;;;;;;18.58;10.30;;;0.20;99.90;;;;;;5011373;28;20021;-63
2021/01/16 02:23:12;;;;;;;19.63;9.75;;;0.20;99.90;;;;;;5006708;28;20034;-61
2021/01/16 02:25:41;;;;;;;19.07;10.10;;;0.20;99.90;;;;;;5010274;28;20030;-63
2021/01/16 02:28:15;;;;;;;22.42;10.88;;;0.20;99.90;;;;;;5007294;28;20479;-62
2021/01/16 02:30:41;;;;;;;19.30;9.98;;;0.10;99.90;;;;;;5009897;28;20041;-62
2021/01/16 02:33:10;;;;;;;20.15;9.88;;;0.10;99.90;;;;;;5010379;28;20515;-62
2021/01/16 02:35:42;;;;;;;18.98;11.00;;;0.20;99.90;;;;;;5011017;28;20037;-62
2021/01/16 02:38:30;;;;;;;18.75;10.02;;;0.20;99.90;;;;;;5001823;28;20041;-62
2021/01/16 02:41:13;;;;;;;20.90;9.33;;;0.10;99.90;;;;;;5010541;28;20029;-62
2021/01/16 02:43:41;;;;;;;17.60;9.87;;;0.10;99.90;;;;;;5010636;28;20092;-62
2021/01/16 02:46:11;;;;;;;20.35;10.07;;;0.20;99.90;;;;;;5004736;28;20025;-62
2021/01/16 02:49:04;;;;;;;22.10;10.77;;;0.20;99.90;;;;;;5010578;28;20096;-62
2021/01/16 02:52:06;;;;;;;21.80;10.77;;;0.20;99.90;;;;;;5006805;28;20048;-61
2021/01/16 02:54:41;;;;;;;19.50;10.77;;;0.20;99.90;;;;;;5007366;28;20040;-61
2021/01/16 02:57:09;;;;;;;22.20;11.07;;;0.20;99.90;;;;;;5010097;28;20026;-61
2021/01/16 02:59:42;;;;;;;20.90;9.87;;;0.20;99.90;;;;;;5008994;28;20036;-63
2021/01/16 03:02:11;;;;;;;23.55;11.20;;;0.20;99.90;;;;;;5004332;28;20026;-62
2021/01/16 03:04:37;;;;;;;28.43;11.57;;;0.20;99.90;;;;;;5010804;28;20042;-63
2021/01/16 03:07:05;;;;;;;22.33;10.73;;;0.20;99.90;;;;;;5007774;28;20030;-60
2021/01/16 03:09:32;;;;;;;23.63;11.87;;;0.20;99.90;;;;;;5000488;28;20483;-64
2021/01/16 03:11:58;;;;;;;20.30;10.73;;;0.20;99.90;;;;;;5010875;28;20037;-63
2021/01/16 03:14:27;;;;;;;17.77;9.65;;;0.20;99.90;;;;;;5010475;28;20434;-57
2021/01/16 03:17:11;;;;;;;17.60;9.88;;;0.20;99.90;;;;;;5008716;28;20029;-63
2021/01/16 03:19:41;;;;;;;22.50;10.88;;;0.30;99.90;;;;;;5022692;28;20065;-62
2021/01/16 03:22:23;;;;;;;21.77;11.00;;;0.20;99.90;;;;;;5003015;28;20060;-63
2021/01/16 03:24:54;;;;;;;20.73;10.07;;;0.20;99.90;;;;;;5009698;28;20041;-63
2021/01/16 03:27:21;;;;;;;18.07;9.83;;;0.20;99.90;;;;;;5002260;28;20117;-60
2021/01/16 03:29:47;;;;;;;19.37;9.13;;;0.20;99.90;;;;;;5007426;28;20083;-62
2021/01/16 03:32:13;;;;;;;21.80;10.13;;;0.20;99.90;;;;;;5010771;28;20026;-63
2021/01/16 03:34:40;;;;;;;17.70;9.57;;;0.20;99.90;;;;;;5010279;28;20026;-62
2021/01/16 03:37:06;;;;;;;19.42;9.93;;;0.20;99.90;;;;;;5001783;28;20031;-63
2021/01/16 03:39:33;;;;;;;17.45;9.23;;;0.20;99.90;;;;;;5006269;28;20403;-63
2021/01/16 03:41:58;;;;;;;20.50;10.30;;;0.20;99.90;;;;;;5005978;28;20066;-61
2021/01/16 03:44:24;;;;;;;19.58;10.13;;;0.20;99.90;;;;;;5005817;28;20049;-55
2021/01/16 03:46:50;;;;;;;20.08;9.85;;;0.20;99.90;;;;;;5009949;28;20032;-62
2021/01/16 03:49:15;;;;;;;24.75;11.60;;;0.20;99.90;;;;;;5009888;28;20400;-63
2021/01/16 03:51:41;;;;;;;21.52;11.80;;;0.20;99.90;;;;;;5010209;28;20030;-62
2021/01/16 03:54:08;;;;;;;21.42;10.63;;;0.20;99.90;;;;;;5006520;28;20418;-62
2021/01/16 03:56:33;;;;;;;18.77;10.80;;;0.20;99.90;;;;;;5009594;28;20079;-62
2021/01/16 03:58:59;;;;;;;20.85;10.75;;;0.20;99.90;;;;;;5009697;28;20121;-61
2021/01/16 04:01:24;;;;;;;22.00;10.25;;;0.20;99.90;;;;;;5010460;28;20031;-62
2021/01/16 04:03:50;;;;;;;19.70;10.45;;;0.20;99.90;;;;;;5009874;28;20022;-63
2021/01/16 04:06:17;;;;;;;25.65;10.70;;;0.10;99.90;;;;;;5006204;28;20445;-61
2021/01/16 04:08:43;;;;;;;19.58;10.25;;;0.10;99.90;;;;;;5005287;28;20113;-62
2021/01/16 04:11:09;;;;;;;17.50;10.43;;;0.10;99.90;;;;;;5009810;28;20108;-63
2021/01/16 04:13:35;;;;;;;19.77;10.15;;;0.20;99.90;;;;;;5009983;28;20074;-62
2021/01/16 04:16:01;;;;;;;19.90;10.45;;;0.10;99.90;;;;;;5009976;28;20022;-62
2021/01/16 04:18:26;;;;;;;24.27;10.95;;;0.10;99.90;;;;;;5009931;28;20028;-60
2021/01/16 04:20:52;;;;;;;20.02;11.25;;;0.10;99.90;;;;;;5009935;28;20030;-62
2021/01/16 04:23:18;;;;;;;19.88;10.63;;;0.10;99.90;;;;;;5010366;28;20395;-63
2021/01/16 04:25:43;;;;;;;20.77;10.80;;;0.10;99.90;;;;;;5010241;28;20514;-62
2021/01/16 04:28:09;;;;;;;28.48;11.93;;;0.10;99.90;;;;;;5012265;28;20045;-62
2021/01/16 04:30:34;;;;;;;18.80;10.35;;;0.10;99.90;;;;;;5012848;28;20618;-62
2021/01/16 04:33:00;;;;;;;22.50;10.73;;;0.10;99.90;;;;;;5013373;28;20500;-62
2021/01/16 04:35:26;;;;;;;21.55;10.30;;;0.10;99.90;;;;;;5010318;28;20029;-62
2021/01/16 04:37:51;;;;;;;21.40;11.60;;;0.20;99.90;;;;;;5007149;28;20072;-60
2021/01/16 04:40:17;;;;;;;22.70;11.00;;;0.20;99.90;;;;;;5013024;28;20069;-62
2021/01/16 04:42:45;;;;;;;19.52;10.93;;;0.10;99.90;;;;;;5012813;28;20025;-63
2021/01/16 04:45:15;;;;;;;20.70;10.40;;;0.10;99.90;;;;;;5012801;28;20105;-62
2021/01/16 04:47:46;;;;;;;23.63;11.38;;;0.10;99.90;;;;;;5011843;28;20579;-62
2021/01/16 04:50:17;;;;;;;22.13;10.70;;;0.10;99.90;;;;;;5012041;28;20036;-62
2021/01/16 04:52:43;;;;;;;23.10;11.55;;;0.10;99.90;;;;;;5012899;28;20117;-62
2021/01/16 04:55:11;;;;;;;24.08;10.95;;;0.10;99.90;;;;;;5013330;28;20060;-62
2021/01/16 04:57:38;;;;;;;22.52;11.90;;;0.10;99.90;;;;;;5012521;28;20032;-62
2021/01/16 05:00:06;;;;;;;25.02;12.15;;;0.10;99.90;;;;;;5013046;28;20034;-62
2021/01/16 05:02:39;;;;;;;31.17;14.68;;;0.10;99.90;;;;;;5012291;28;20040;-63
2021/01/16 05:05:12;;;;;;;26.77;13.13;;;0.10;99.90;;;;;;5012695;28;20022;-63
2021/01/16 05:07:39;;;;;;;21.93;11.53;;;0.00;99.90;;;;;;5012600;28;20143;-61
2021/01/16 05:10:07;;;;;;;21.15;10.63;;;0.00;99.90;;;;;;5010996;28;20033;-61
2021/01/16 05:12:58;;;;;;;20.00;9.50;;;0.00;99.90;;;;;;5012281;28;20688;-61
2021/01/16 05:15:28;;;;;;;21.50;11.18;;;0.10;99.90;;;;;;5007869;28;20033;-63
2021/01/16 05:18:09;;;;;;;20.90;11.15;;;0.10;99.90;;;;;;5011689;28;20036;-62
2021/01/16 05:20:37;;;;;;;34.30;15.18;;;0.00;99.90;;;;;;5013286;28;20022;-63
2021/01/16 05:23:15;;;;;;;29.67;14.23;;;0.00;99.90;;;;;;5009473;28;20109;-63
2021/01/16 05:25:49;;;;;;;26.02;13.68;;;0.00;99.90;;;;;;5012973;28;20028;-62
2021/01/16 05:28:18;;;;;;;23.23;11.80;;;0.00;99.90;;;;;;5011659;28;20029;-62
2021/01/16 05:31:01;;;;;;;23.90;12.25;;;0.00;99.90;;;;;;5011261;28;20065;-62
2021/01/16 05:33:35;;;;;;;23.50;11.20;;;0.00;99.90;;;;;;5007571;28;20064;-63
2021/01/16 05:36:04;;;;;;;22.58;11.60;;;0.00;99.90;;;;;;5011845;28;20026;-62
2021/01/16 05:38:41;;;;;;;26.40;12.30;;;0.00;99.90;;;;;;5004111;28;20025;-63
2021/01/16 05:41:12;;;;;;;21.40;11.63;;;0.00;99.90;;;;;;5011614;28;20030;-63
2021/01/16 05:43:39;;;;;;;23.33;12.07;;;0.00;99.90;;;;;;5011193;28;20045;-62
2021/01/16 05:46:10;;;;;;;22.73;11.18;;;0.10;99.90;;;;;;5010319;28;20445;-63
2021/01/16 05:48:37;;;;;;;23.58;11.90;;;0.10;99.90;;;;;;5011806;28;20041;-62
2021/01/16 05:51:03;;;;;;;22.63;11.30;;;0.10;99.90;;;;;;5006160;28;20036;-63
2021/01/16 05:53:30;;;;;;;21.83;11.68;;;0.10;99.90;;;;;;5012156;28;20030;-63
2021/01/16 05:55:57;;;;;;;23.83;11.95;;;0.10;99.90;;;;;;5012246;28;20034;-62
2021/01/16 05:58:27;;;;;;;23.83;11.53;;;0.10;99.90;;;;;;5011981;28;20087;-62
2021/01/16 06:00:55;;;;;;;28.83;13.23;;;0.10;99.90;;;;;;5010575;28;20029;-62
2021/01/16 06:03:21;;;;;;;23.48;11.48;;;0.00;99.90;;;;;;5010592;28;20361;-62
2021/01/16 06:05:52;;;;;;;20.70;11.00;;;0.00;99.90;;;;;;5009665;28;20029;-62
2021/01/16 06:08:19;;;;;;;23.33;12.00;;;0.00;99.90;;;;;;5009156;28;20108;-63
2021/01/16 06:10:51;;;;;;;22.33;11.47;;;0.00;99.90;;;;;;5011588;28;20487;-63
2021/01/16 06:13:22;;;;;;;21.83;11.40;;;0.00;99.90;;;;;;5004806;28;20607;-62
2021/01/16 06:15:50;;;;;;;21.88;11.55;;;0.00;99.90;;;;;;5011502;28;20391;-62
2021/01/16 06:18:28;;;;;;;22.42;11.75;;;0.00;99.90;;;;;;5010904;28;20026;-63
2021/01/16 06:20:55;;;;;;;23.27;11.80;;;0.00;99.90;;;;;;5009331;28;20396;-62
2021/01/16 06:23:22;;;;;;;25.00;11.70;;;0.00;99.90;;;;;;5007117;28;20018;-63
2021/01/16 06:25:56;;;;;;;23.92;11.73;;;0.00;99.90;;;;;;5009140;28;20018;-62
2021/01/16 06:28:26;;;;;;;;;;;0.00;99.90;;;;;;5010817;28;20480;-62
2021/01/16 06:30:58;;;;;;;19.87;11.40;;;0.00;99.90;;;;;;5004663;28;19921;-62
2021/01/16 06:33:30;;;;;;;21.90;10.53;;;0.00;99.90;;;;;;5022529;28;20488;-63
2021/01/16 06:35:56;;;;;;;25.23;11.50;;;0.00;99.90;;;;;;5004559;28;20053;-62
2021/01/16 06:38:26;;;;;;;23.67;11.80;;;0.00;99.90;;;;;;5006790;28;20034;-63
2021/01/16 06:40:53;;;;;;;21.17;11.88;;;0.00;99.90;;;;;;5011387;28;20040;-62
2021/01/16 06:43:22;;;;;;;20.90;11.50;;;0.00;99.90;;;;;;5026510;28;20025;-62
2021/01/16 06:45:47;;;;;;;22.77;12.57;;;0.00;99.90;;;;;;5009959;28;20105;-61
2021/01/16 06:48:14;;;;;;;23.73;13.13;;;0.00;99.90;;;;;;5010370;28;20454;-62
2021/01/16 06:50:40;;;;;;;25.67;11.67;;;0.00;99.90;;;;;;5010998;28;20101;-62
2021/01/16 06:53:24;;;;;;;24.85;12.13;;;-0.10;99.90;;;;;;5004744;28;20110;-57
2021/01/16 06:56:06;;;;;;;20.52;11.23;;;0.00;99.90;;;;;;5010911;28;20094;-63
2021/01/16 06:58:40;;;;;;;19.87;11.50;;;-0.10;99.90;;;;;;5007646;28;20038;-62
2021/01/16 07:01:07;;;;;;;23.92;12.57;;;0.00;99.90;;;;;;5021228;28;20026;-62
2021/01/16 07:03:38;;;;;;;21.63;10.80;;;-0.10;99.90;;;;;;5010535;28;20033;-63
2021/01/16 07:06:05;;;;;;;23.33;11.83;;;-0.10;99.90;;;;;;5011006;28;20037;-62
2021/01/16 07:08:33;;;;;;;22.33;11.83;;;-0.10;99.90;;;;;;5009928;28;20448;-63
2021/01/16 07:10:59;;;;;;;22.42;11.27;;;0.00;99.90;;;;;;5010710;28;20049;-63
2021/01/16 07:13:24;;;;;;;101.47;53.30;;;-0.10;99.90;;;;;;5008075;28;20030;-62
2021/01/16 07:15:53;;;;;;;86.57;39.67;;;-0.10;99.90;;;;;;5010175;28;20018;-62
2021/01/16 07:18:19;;;;;;;50.03;23.47;;;-0.10;99.90;;;;;;5003501;28;20026;-62
2021/01/16 07:20:48;;;;;;;25.13;12.68;;;-0.10;99.90;;;;;;5011056;28;20388;-60
2021/01/16 07:23:16;;;;;;;25.40;13.43;;;-0.10;99.90;;;;;;5008089;28;20057;-62
2021/01/16 07:25:43;;;;;;;35.67;16.90;;;-0.10;99.90;;;;;;5007362;28;20096;-62
2021/01/16 07:28:10;;;;;;;31.88;14.45;;;-0.10;99.90;;;;;;5009725;28;20881;-63
2021/01/16 07:30:36;;;;;;;26.83;14.20;;;-0.10;99.90;;;;;;5008994;28;20026;-63
2021/01/16 07:33:04;;;;;;;30.93;13.80;;;-0.10;99.90;;;;;;5005792;28;20037;-63
2021/01/16 07:35:31;;;;;;;25.95;13.63;;;-0.10;99.90;;;;;;5007989;28;20034;-62
2021/01/16 07:37:56;;;;;;;42.40;19.27;;;0.00;99.90;;;;;;5006035;28;20034;-62
2021/01/16 07:40:23;;;;;;;29.63;14.45;;;0.00;99.90;;;;;;5011022;28;20026;-61
2021/01/16 07:42:53;;;;;;;29.70;13.93;;;-0.10;99.90;;;;;;5010004;28;20072;-63
2021/01/16 07:45:28;;;;;;;25.05;12.85;;;-0.10;99.90;;;;;;5009839;28;20068;-60
2021/01/16 07:47:56;;;;;;;23.60;11.75;;;0.00;99.90;;;;;;5010937;28;20353;-61
2021/01/16 07:50:23;;;;;;;25.57;12.60;;;0.00;99.90;;;;;;5010698;28;20201;-63
2021/01/16 07:52:55;;;;;;;24.97;13.27;;;0.00;99.90;;;;;;5006469;28;20471;-63
2021/01/16 07:55:24;;;;;;;24.85;13.43;;;0.10;99.90;;;;;;5010453;28;20128;-62
2021/01/16 07:57:51;;;;;;;27.97;13.70;;;0.10;99.90;;;;;;5005749;28;20099;-62
2021/01/16 08:00:22;;;;;;;29.27;17.58;;;0.10;99.90;;;;;;5008275;28;20041;-62
2021/01/16 08:03:12;;;;;;;32.35;16.52;;;0.10;99.90;;;;;;4962716;28;20172;-63
2021/01/16 08:05:56;;;;;;;30.65;15.00;;;0.10;99.90;;;;;;5009681;28;20040;-62
2021/01/16 08:09:00;;;;;;;28.70;13.35;;;0.10;99.90;;;;;;5006799;28;20589;-62
2021/01/16 08:11:31;;;;;;;21.17;12.40;;;0.20;99.90;;;;;;4971217;28;20047;-63
2021/01/16 08:13:59;;;;;;;27.75;13.80;;;0.20;99.90;;;;;;4973165;28;20128;-61
2021/01/16 08:16:26;;;;;;;21.20;12.55;;;0.20;99.90;;;;;;4992881;28;20030;-61
2021/01/16 08:19:03;;;;;;;24.88;12.20;;;0.20;99.90;;;;;;5013215;28;20045;-61
2021/01/16 08:21:29;;;;;;;30.60;15.15;;;0.30;99.90;;;;;;5012773;28;20061;-62
2021/01/16 08:24:03;;;;;;;26.02;13.23;;;0.20;99.90;;;;;;5012905;28;20403;-63
2021/01/16 08:26:28;;;;;;;22.80;12.40;;;0.30;99.90;;;;;;5012755;28;20029;-61
2021/01/16 08:28:57;;;;;;;26.35;13.32;;;0.20;99.90;;;;;;5006047;28;20468;-61
2021/01/16 08:31:30;;;;;;;24.58;12.75;;;0.20;99.90;;;;;;5012612;28;20104;-60
2021/01/16 08:33:57;;;;;;;21.58;11.70;;;0.20;99.90;;;;;;5008698;28;20495;-61
2021/01/16 08:36:23;;;;;;;27.58;12.98;;;0.20;99.90;;;;;;5011920;28;20041;-62
2021/01/16 08:38:50;;;;;;;27.90;13.18;;;0.30;99.90;;;;;;5012138;28;20117;-63
2021/01/16 08:41:36;;;;;;;23.63;12.95;;;0.20;99.90;;;;;;5012814;28;20058;-62
2021/01/16 08:44:02;;;;;;;23.23;12.82;;;0.30;99.90;;;;;;5012395;28;20049;-62
2021/01/16 08:46:32;;;;;;;39.65;16.85;;;0.30;99.90;;;;;;5012069;28;20080;-59
2021/01/16 08:49:00;;;;;;;29.80;15.10;;;0.40;99.90;;;;;;5012420;28;20034;-62
2021/01/16 08:51:35;;;;;;;32.47;15.20;;;0.40;99.90;;;;;;5012217;28;20032;-60
2021/01/16 08:54:23;;;;;;;36.58;16.80;;;0.40;99.90;;;;;;5009095;28;20029;-61
2021/01/16 08:57:12;;;;;;;28.13;14.57;;;0.50;99.90;;;;;;5005829;28;20403;-60
2021/01/16 08:59:38;;;;;;;24.63;13.77;;;0.50;99.90;;;;;;5010316;28;20045;-61
2021/01/16 09:02:13;;;;;;;27.10;14.52;;;0.50;99.90;;;;;;5012498;28;20217;-62
2021/01/16 09:04:43;;;;;;;30.35;13.75;;;0.50;99.90;;;;;;5000944;28;20143;-63
2021/01/16 09:07:20;;;;;;;31.38;15.65;;;0.50;99.90;;;;;;5004327;28;20030;-62
2021/01/16 09:10:06;;;;;;;27.27;14.65;;;0.60;99.90;;;;;;5010726;28;20044;-61
2021/01/16 09:12:36;;;;;;;42.28;19.92;;;0.60;99.90;;;;;;5003930;28;20500;-62
2021/01/16 09:15:18;;;;;;;49.45;23.13;;;0.60;99.90;;;;;;5011609;28;20476;-63
2021/01/16 09:18:09;;;;;;;39.15;19.75;;;0.60;99.90;;;;;;5009382;28;20030;-62
2021/01/16 09:20:43;;;;;;;35.53;14.80;;;0.60;99.90;;;;;;5024642;28;20463;-63
2021/01/16 09:23:39;;;;;;;26.10;14.98;;;0.70;99.90;;;;;;5011664;28;20030;-63
2021/01/16 09:26:05;;;;;;;37.67;16.55;;;0.70;99.90;;;;;;5008114;28;20889;-63
2021/01/16 09:28:52;;;;;;;30.30;15.07;;;0.70;99.90;;;;;;5011749;28;20045;-62
2021/01/16 09:31:25;;;;;;;33.67;14.65;;;0.80;99.90;;;;;;5009823;28;20091;-63
2021/01/16 09:33:57;;;;;;;31.52;15.13;;;0.90;99.90;;;;;;5012466;28;20036;-63
2021/01/16 09:36:39;;;;;;;27.75;14.95;;;0.90;99.90;;;;;;5011261;28;20022;-63
2021/01/16 09:39:06;;;;;;;25.63;13.98;;;0.90;99.90;;;;;;5005269;28;20060;-57
2021/01/16 09:41:33;;;;;;;25.45;13.63;;;1.00;99.90;;;;;;5009214;28;20059;-63
2021/01/16 09:43:59;;;;;;;26.98;13.30;;;1.00;99.90;;;;;;5011812;28;20025;-63
2021/01/16 09:46:39;;;;;;;25.80;14.27;;;1.00;99.90;;;;;;5012048;28;20038;-62
2021/01/16 09:49:06;;;;;;;28.83;15.32;;;1.00;99.90;;;;;;5011945;28;20026;-63
2021/01/16 09:51:34;;;;;;;31.55;15.10;;;1.10;99.90;;;;;;5011259;28;20033;-63
2021/01/16 09:54:14;;;;;;;27.42;14.45;;;1.00;99.90;;;;;;5007074;28;20068;-62
2021/01/16 09:56:43;;;;;;;32.47;14.57;;;1.00;99.90;;;;;;5005308;28;20042;-63
2021/01/16 09:59:20;;;;;;;29.83;15.98;;;1.10;99.90;;;;;;5004787;28;20175;-61
2021/01/16 10:02:08;;;;;;;26.83;14.68;;;1.10;99.90;;;;;;5007185;28;20101;-62
2021/01/16 10:04:44;;;;;;;36.92;17.70;;;1.10;99.90;;;;;;5008115;28;20021;-62
2021/01/16 10:07:12;;;;;;;29.88;13.95;;;1.20;99.90;;;;;;5008873;28;20033;-63
2021/01/16 10:09:42;;;;;;;25.73;13.50;;;1.30;99.90;;;;;;5011452;28;20052;-63
2021/01/16 10:12:08;;;;;;;27.00;14.38;;;1.40;99.90;;;;;;5008267;28;20026;-63
2021/01/16 10:14:38;;;;;;;29.38;14.38;;;1.50;99.90;;;;;;5011282;28;20033;-62
2021/01/16 10:17:10;;;;;;;27.80;14.25;;;1.50;99.90;;;;;;5007474;28;20048;-62
2021/01/16 10:19:37;;;;;;;28.45;14.25;;;1.60;99.90;;;;;;5010376;28;20047;-63
2021/01/16 10:22:02;;;;;;;30.58;14.60;;;1.50;99.90;;;;;;5008912;28;20026;-62
2021/01/16 10:24:29;;;;;;;27.48;13.85;;;1.40;99.90;;;;;;5008535;28;20036;-58
2021/01/16 10:26:55;;;;;;;25.83;14.45;;;1.50;99.90;;;;;;5011257;28;20022;-61
2021/01/16 10:29:30;;;;;;;23.45;13.18;;;1.50;99.90;;;;;;5011444;28;20467;-63
2021/01/16 10:32:17;;;;;;;28.42;14.73;;;1.50;99.90;;;;;;5010215;28;20522;-63
2021/01/16 10:34:44;;;;;;;26.02;14.57;;;1.60;99.90;;;;;;5007040;28;20018;-61
2021/01/16 10:37:11;;;;;;;24.50;13.00;;;1.60;99.90;;;;;;5004046;28;20057;-63
2021/01/16 10:39:38;;;;;;;28.83;14.63;;;1.70;99.90;;;;;;5010565;28;20068;-62
2021/01/16 10:42:14;;;;;;;29.90;15.50;;;1.70;99.90;;;;;;5011721;28;20395;-63
2021/01/16 10:44:40;;;;;;;28.08;15.48;;;1.70;99.90;;;;;;5010555;28;20014;-63
2021/01/16 10:47:33;;;;;;;31.88;15.30;;;1.80;99.90;;;;;;5011246;28;20087;-61
2021/01/16 10:50:08;;;;;;;29.83;13.88;;;1.70;99.90;;;;;;5010085;28;20080;-63
2021/01/16 10:52:34;;;;;;;30.25;14.70;;;1.70;99.90;;;;;;5006040;28;20125;-62
2021/01/16 10:55:02;;;;;;;28.05;14.20;;;1.70;99.90;;;;;;5010262;28;20022;-61
2021/01/16 10:57:40;;;;;;;32.72;15.65;;;1.80;99.90;;;;;;5007570;28;20109;-63
2021/01/16 11:00:12;;;;;;;26.48;14.77;;;1.70;99.90;;;;;;5009392;28;20029;-62
2021/01/16 11:02:49;;;;;;;30.77;15.30;;;1.70;99.90;;;;;;5010483;28;20030;-62
2021/01/16 11:05:25;;;;;;;29.02;14.45;;;1.70;99.90;;;;;;5009297;28;20381;-65
2021/01/16 11:07:52;;;;;;;29.83;13.02;;;1.70;99.90;;;;;;5005289;28;20472;-63
2021/01/16 11:10:26;;;;;;;27.40;13.70;;;1.80;99.90;;;;;;5010136;28;20030;-61
2021/01/16 11:12:52;;;;;;;25.25;13.27;;;1.80;99.90;;;;;;5010947;28;20022;-62
2021/01/16 11:15:30;;;;;;;26.00;12.68;;;1.80;99.90;;;;;;5008336;28;20041;-60
2021/01/16 11:17:58;;;;;;;27.75;15.02;;;1.80;99.90;;;;;;5009732;28;20033;-61
2021/01/16 11:20:27;;;;;;;25.48;13.73;;;1.60;99.90;;;;;;4947852;28;20056;-62
2021/01/16 11:23:04;;;;;;;26.40;12.88;;;1.70;99.90;;;;;;5006540;28;20022;-63
2021/01/16 11:25:43;;;;;;;24.38;14.18;;;1.80;99.90;;;;;;5009361;28;20032;-63
2021/01/16 11:28:10;;;;;;;38.55;17.08;;;1.80;99.90;;;;;;5008968;28;20026;-62
2021/01/16 11:30:42;;;;;;;25.30;14.20;;;1.70;99.90;;;;;;5008670;28;20025;-61
2021/01/16 11:33:24;;;;;;;27.05;12.80;;;1.80;99.90;;;;;;5001192;28;20038;-62
2021/01/16 11:36:07;;;;;;;26.23;11.55;;;1.80;99.90;;;;;;5014136;28;20128;-61
2021/01/16 11:38:45;;;;;;;24.52;14.25;;;1.80;99.90;;;;;;5012790;28;20030;-63
2021/01/16 11:41:12;;;;;;;24.50;12.75;;;1.80;99.90;;;;;;5013111;28;20018;-62
2021/01/16 11:43:39;;;;;;;21.27;11.50;;;2.00;99.90;;;;;;5016997;28;20024;-63
2021/01/16 11:46:05;;;;;;;25.20;13.52;;;2.00;99.90;;;;;;5015610;28;20053;-61
2021/01/16 11:48:32;;;;;;;26.30;13.52;;;2.00;99.90;;;;;;5014547;28;20033;-62
2021/01/16 11:50:58;;;;;;;32.53;18.63;;;2.00;99.90;;;;;;5012157;28;20034;-61
2021/01/16 11:53:25;;;;;;;22.20;11.88;;;2.10;99.90;;;;;;5012186;28;20057;-60
2021/01/16 11:55:50;;;;;;;22.73;11.73;;;2.00;99.90;;;;;;5010817;28;20455;-62
2021/01/16 11:58:16;;;;;;;20.63;11.43;;;2.00;99.90;;;;;;5013815;28;20037;-60
2021/01/16 12:00:43;;;;;;;23.40;12.27;;;2.00;99.90;;;;;;5015182;28;20116;-63
2021/01/16 12:03:10;;;;;;;23.67;11.60;;;2.10;99.90;;;;;;5012950;28;20088;-63
2021/01/16 12:05:35;;;;;;;26.90;13.30;;;2.10;99.90;;;;;;5015290;28;20038;-61
2021/01/16 12:08:02;;;;;;;24.83;12.27;;;2.10;99.90;;;;;;5002602;28;20415;-62
2021/01/16 12:10:29;;;;;;;29.35;12.90;;;2.10;99.90;;;;;;5005980;28;20536;-61
2021/01/16 12:12:56;;;;;;;22.20;11.68;;;2.20;99.90;;;;;;4999631;28;20026;-61
2021/01/16 12:15:22;;;;;;;22.35;12.57;;;2.10;99.90;;;;;;5001901;28;20034;-63
2021/01/16 12:17:50;;;;;;;16.60;10.05;;;2.20;99.90;;;;;;5001189;28;20492;-61
2021/01/16 12:20:18;;;;;;;17.27;9.05;;;2.20;99.90;;;;;;4948411;28;20213;-62
2021/01/16 12:22:45;;;;;;;28.48;15.02;;;2.10;99.90;;;;;;5001444;28;20030;-61
2021/01/16 12:25:15;;;;;;;20.48;10.68;;;2.10;99.90;;;;;;4998441;28;20031;-62
2021/01/16 12:27:47;;;;;;;23.88;10.88;;;2.20;99.90;;;;;;5002503;28;20121;-62
2021/01/16 12:30:14;;;;;;;16.75;9.43;;;2.20;99.90;;;;;;5005355;28;20080;-62
2021/01/16 12:32:40;;;;;;;18.35;9.85;;;2.10;99.90;;;;;;5004427;28;20017;-62
2021/01/16 12:35:06;;;;;;;15.13;9.00;;;2.20;99.90;;;;;;5001399;28;20106;-62
2021/01/16 12:37:33;;;;;;;16.95;10.23;;;2.10;99.90;;;;;;5013869;28;20028;-63
2021/01/16 12:40:00;;;;;;;21.58;11.05;;;2.10;99.90;;;;;;5012734;28;20041;-63
2021/01/16 12:42:29;;;;;;;17.33;10.13;;;2.20;99.90;;;;;;5016683;28;20022;-63
2021/01/16 12:45:04;;;;;;;20.00;10.55;;;2.10;99.90;;;;;;5013087;28;20037;-64
2021/01/16 12:47:30;;;;;;;18.83;10.27;;;2.10;99.90;;;;;;5010489;28;20026;-63
2021/01/16 12:49:56;;;;;;;18.60;10.50;;;2.10;99.90;;;;;;5008286;28;20061;-62
2021/01/16 12:52:29;;;;;;;18.13;9.18;;;2.10;99.90;;;;;;5001595;28;20069;-61